createdAt,value
2023-03-16T00:01:03.727Z,24.83
2023-03-16T00:05:58.034Z,14.57
2023-03-16T00:08:25.344Z,18.25
2023-03-16T00:10:54.358Z,23.73
2023-03-16T00:13:24.806Z,19.30
2023-03-16T00:16:05.651Z,19.25
2023-03-16T00:18:38.816Z,20.27
2023-03-16T00:21:06.800Z,13.07
2023-03-16T00:23:37.689Z,17.00
2023-03-16T00:26:07.948Z,17.75
2023-03-16T00:28:36.168Z,12.95
2023-03-16T00:31:11.915Z,13.52
2023-03-16T00:33:40.316Z,20.00
2023-03-16T00:36:11.308Z,18.25
2023-03-16T00:38:45.404Z,19.98
2023-03-16T00:41:17.943Z,15.35
2023-03-16T00:43:46.628Z,18.48
2023-03-16T00:46:19.082Z,16.58
2023-03-16T00:49:07.005Z,19.92
2023-03-16T00:51:34.102Z,15.88
2023-03-16T00:54:01.197Z,12.43
2023-03-16T00:56:29.334Z,18.83
2023-03-16T00:58:58.047Z,15.10
2023-03-16T01:01:25.533Z,14.48
2023-03-16T01:03:52.601Z,12.43
2023-03-16T01:06:20.779Z,16.50
2023-03-16T01:08:49.876Z,14.40
2023-03-16T01:11:21.947Z,11.38
2023-03-16T01:13:54.295Z,15.27
2023-03-16T01:16:23.425Z,14.48
2023-03-16T01:18:52.467Z,13.77
2023-03-16T01:21:21.677Z,15.25
2023-03-16T01:23:50.324Z,10.23
2023-03-16T01:26:18.972Z,18.02
2023-03-16T01:28:47.777Z,13.10
2023-03-16T01:31:16.392Z,12.30
2023-03-16T01:33:44.012Z,12.20
2023-03-16T01:36:18.224Z,15.80
2023-03-16T01:38:51.670Z,14.15
2023-03-16T01:41:19.107Z,16.58
2023-03-16T01:43:46.957Z,16.33
2023-03-16T01:46:22.533Z,14.90
2023-03-16T01:49:10.298Z,12.50
2023-03-16T01:52:05.618Z,17.98
2023-03-16T01:54:44.232Z,16.15
2023-03-16T02:00:46.274Z,16.20
2023-03-16T02:03:22.203Z,12.95
2023-03-16T02:06:08.542Z,12.00
2023-03-16T02:08:42.845Z,10.20
2023-03-16T02:11:10.528Z,12.32
2023-03-16T02:13:49.801Z,12.15
2023-03-16T02:16:19.667Z,18.75
2023-03-16T02:18:53.629Z,14.20
2023-03-16T02:22:06.527Z,12.93
2023-03-16T02:24:36.518Z,13.93
2023-03-16T02:27:10.490Z,13.00
2023-03-16T02:29:57.481Z,10.40
2023-03-16T02:32:30.537Z,19.63
2023-03-16T02:35:01.958Z,12.98
2023-03-16T02:37:32.300Z,18.70
2023-03-16T02:40:02.131Z,16.40
2023-03-16T02:42:29.940Z,24.35
2023-03-16T02:45:04.566Z,17.02
2023-03-16T02:48:09.790Z,20.15
2023-03-16T02:50:37.145Z,14.15
2023-03-16T02:53:04.845Z,12.73
2023-03-16T02:55:31.988Z,17.20
2023-03-16T02:57:59.093Z,19.83
2023-03-16T03:00:38.808Z,15.60
2023-03-16T03:03:08.721Z,17.85
2023-03-16T03:05:38.015Z,18.17
2023-03-16T03:08:06.553Z,15.32
2023-03-16T03:10:48.904Z,20.98
2023-03-16T03:13:41.712Z,12.93
2023-03-16T03:16:28.396Z,14.00
2023-03-16T03:18:58.303Z,19.35
2023-03-16T03:21:26.865Z,17.08
2023-03-16T03:23:54.405Z,16.13
2023-03-16T03:26:21.691Z,18.05
2023-03-16T03:28:49.393Z,16.83
2023-03-16T03:31:22.532Z,17.63
2023-03-16T03:33:54.252Z,18.67
2023-03-16T03:36:22.616Z,17.15
2023-03-16T03:38:49.814Z,21.05
2023-03-16T03:41:19.421Z,17.75
2023-03-16T03:43:46.870Z,20.20
2023-03-16T03:46:17.436Z,19.60
2023-03-16T03:49:07.976Z,22.95
2023-03-16T03:51:36.056Z,17.08
2023-03-16T03:54:08.167Z,14.18
2023-03-16T03:56:35.861Z,18.77
2023-03-16T03:59:05.803Z,12.75
2023-03-16T04:01:53.843Z,17.05
2023-03-16T04:04:23.432Z,15.68
2023-03-16T04:06:52.148Z,21.70
2023-03-16T04:09:19.560Z,16.70
2023-03-16T04:11:47.564Z,13.80
2023-03-16T04:14:15.017Z,15.68
2023-03-16T04:16:44.252Z,17.95
2023-03-16T04:19:13.292Z,13.45
2023-03-16T04:21:41.222Z,15.48
2023-03-16T04:24:08.499Z,24.63
2023-03-16T04:26:36.829Z,19.05
2023-03-16T04:29:04.990Z,19.92
2023-03-16T04:31:33.845Z,12.68
2023-03-16T04:34:02.428Z,14.20
2023-03-16T04:36:34.662Z,21.58
2023-03-16T04:39:04.219Z,18.23
2023-03-16T04:41:32.701Z,19.67
2023-03-16T04:44:07.895Z,17.48
2023-03-16T04:46:36.741Z,16.98
2023-03-16T04:51:40.591Z,13.10
2023-03-16T04:56:41.866Z,14.85
2023-03-16T04:59:28.088Z,21.90
2023-03-16T05:02:04.301Z,17.85
2023-03-16T05:04:31.867Z,26.20
2023-03-16T05:07:03.360Z,18.38
2023-03-16T05:09:39.084Z,22.40
2023-03-16T05:12:07.388Z,20.27
2023-03-16T05:14:38.697Z,20.08
2023-03-16T05:17:28.789Z,25.60
2023-03-16T05:20:09.598Z,19.65
2023-03-16T05:27:46.316Z,18.92
2023-03-16T05:30:20.113Z,17.95
2023-03-16T05:32:48.139Z,17.75
2023-03-16T05:35:16.549Z,18.92
2023-03-16T05:37:47.886Z,23.70
2023-03-16T05:40:23.161Z,25.85
2023-03-16T05:43:02.258Z,26.33
2023-03-16T05:45:32.280Z,19.53
2023-03-16T05:48:10.808Z,20.90
2023-03-16T05:50:44.479Z,21.48
2023-03-16T05:54:33.928Z,26.67
2023-03-16T05:57:01.500Z,21.55
2023-03-16T05:59:29.529Z,21.48
2023-03-16T06:01:58.198Z,25.40
2023-03-16T06:04:27.332Z,25.30
2023-03-16T06:06:54.972Z,30.75
2023-03-16T06:09:26.107Z,17.57
2023-03-16T06:11:53.648Z,25.17
2023-03-16T06:14:21.374Z,21.20
2023-03-16T06:16:49.827Z,20.77
2023-03-16T06:20:17.066Z,21.88
2023-03-16T06:23:03.395Z,21.95
2023-03-16T06:25:31.873Z,18.88
2023-03-16T06:28:19.317Z,29.05
2023-03-16T06:30:47.529Z,17.17
2023-03-16T06:33:46.470Z,23.20
2023-03-16T06:36:15.093Z,14.95
2023-03-16T06:38:47.399Z,23.25
2023-03-16T06:46:33.958Z,20.92
2023-03-16T06:50:20.202Z,25.88
2023-03-16T06:52:47.695Z,17.05
2023-03-16T06:55:14.980Z,16.58
2023-03-16T07:04:29.445Z,17.23
2023-03-16T07:06:56.828Z,20.95
2023-03-16T07:09:24.252Z,20.35
2023-03-16T07:11:53.113Z,21.48
2023-03-16T07:14:21.141Z,16.67
2023-03-16T07:21:59.923Z,21.33
2023-03-16T07:24:29.162Z,13.70
2023-03-16T07:26:57.037Z,17.23
2023-03-16T07:29:31.308Z,20.67
2023-03-16T07:31:59.699Z,21.90
2023-03-16T07:34:34.058Z,17.77
2023-03-16T07:37:02.216Z,14.23
2023-03-16T07:39:31.977Z,19.35
2023-03-16T07:42:15.071Z,20.35
2023-03-16T07:44:58.046Z,14.00
2023-03-16T07:47:54.684Z,14.75
2023-03-16T07:50:48.182Z,42.03
2023-03-16T07:53:16.267Z,14.70
2023-03-16T07:55:46.027Z,16.55
2023-03-16T08:01:50.719Z,13.23
2023-03-16T08:04:18.573Z,14.07
2023-03-16T08:06:46.508Z,14.27
2023-03-16T08:09:14.386Z,15.05
2023-03-16T08:11:43.069Z,15.85
2023-03-16T08:14:10.933Z,16.52
2023-03-16T08:17:17.653Z,14.05
2023-03-16T08:19:48.379Z,15.77
2023-03-16T08:22:16.356Z,13.10
2023-03-16T08:24:46.276Z,18.35
2023-03-16T08:27:16.389Z,15.80
2023-03-16T08:29:53.824Z,15.80
2023-03-16T08:32:24.481Z,18.10
2023-03-16T08:34:52.652Z,20.75
2023-03-16T08:37:20.125Z,18.67
2023-03-16T08:39:51.658Z,13.73
2023-03-16T08:42:21.012Z,14.63
2023-03-16T08:44:55.224Z,18.45
2023-03-16T08:47:24.473Z,16.42
2023-03-16T08:49:52.338Z,15.38
2023-03-16T08:52:20.097Z,13.52
2023-03-16T08:55:02.013Z,16.63
2023-03-16T09:04:52.826Z,16.02
2023-03-16T09:07:20.561Z,12.07
2023-03-16T09:09:48.110Z,23.08
2023-03-16T09:12:19.167Z,15.43
2023-03-16T09:14:46.762Z,18.92
2023-03-16T09:25:06.754Z,11.82
2023-03-16T09:27:36.784Z,11.32
2023-03-16T09:30:09.372Z,21.50
2023-03-16T09:32:38.654Z,8.82
2023-03-16T09:36:09.397Z,13.73
2023-03-16T09:39:28.883Z,14.18
2023-03-16T09:42:36.751Z,12.00
2023-03-16T09:45:46.593Z,11.60
2023-03-16T09:48:17.240Z,11.95
2023-03-16T09:50:49.793Z,10.43
2023-03-16T09:53:35.333Z,14.57
2023-03-16T09:56:09.409Z,16.15
2023-03-16T09:58:37.224Z,10.00
2023-03-16T10:01:38.750Z,11.43
2023-03-16T10:04:20.697Z,12.18
2023-03-16T10:07:03.468Z,11.63
2023-03-16T10:12:09.173Z,10.25
2023-03-16T10:14:52.581Z,7.68
2023-03-16T10:17:31.036Z,9.43
2023-03-16T10:20:11.293Z,9.13
2023-03-16T10:22:44.247Z,15.38
2023-03-16T10:29:36.831Z,10.02
2023-03-16T10:32:18.965Z,11.35
2023-03-16T10:34:58.323Z,13.60
2023-03-16T10:37:29.976Z,6.32
2023-03-16T10:39:57.437Z,11.63
2023-03-16T10:42:25.115Z,7.55
2023-03-16T10:45:01.674Z,12.45
2023-03-16T10:47:33.691Z,7.70
2023-03-16T10:50:19.090Z,9.30
2023-03-16T10:52:50.397Z,13.05
2023-03-16T10:55:24.399Z,5.60
2023-03-16T10:57:55.196Z,7.20
2023-03-16T11:00:41.626Z,7.10
2023-03-16T11:03:41.408Z,5.72
2023-03-16T11:06:22.915Z,6.05
2023-03-16T11:08:53.019Z,9.63
2023-03-16T11:11:32.625Z,6.13
2023-03-16T11:14:04.646Z,6.78
2023-03-16T11:17:38.234Z,5.32
2023-03-16T11:20:22.198Z,7.20
2023-03-16T11:22:51.375Z,13.02
2023-03-16T11:25:43.468Z,8.18
2023-03-16T11:28:24.153Z,5.20
2023-03-16T11:31:29.518Z,6.78
2023-03-16T11:33:57.628Z,6.53
2023-03-16T11:36:44.784Z,6.90
2023-03-16T11:40:14.340Z,5.15
2023-03-16T11:43:26.249Z,4.88
2023-03-16T11:46:16.376Z,15.20
2023-03-16T11:49:00.394Z,6.45
2023-03-16T11:51:46.150Z,7.60
2023-03-16T11:55:01.494Z,4.57
2023-03-16T11:58:17.547Z,6.63
2023-03-16T12:01:07.506Z,3.63
2023-03-16T12:04:13.146Z,5.55
2023-03-16T12:07:09.279Z,6.63
2023-03-16T12:10:33.968Z,3.58
2023-03-16T12:14:00.510Z,8.98
2023-03-16T12:16:48.391Z,7.38
2023-03-16T12:19:45.997Z,4.20
2023-03-16T12:22:42.214Z,5.82
2023-03-16T12:25:22.246Z,4.93
2023-03-16T12:27:56.180Z,6.07
2023-03-16T12:30:39.315Z,7.45
2023-03-16T12:33:34.358Z,6.45
2023-03-16T12:36:19.584Z,7.35
2023-03-16T12:39:19.925Z,5.43
2023-03-16T12:46:32.107Z,18.08
2023-03-16T12:49:02.942Z,6.72
2023-03-16T12:51:43.685Z,9.88
2023-03-16T12:54:26.602Z,5.85
2023-03-16T13:00:41.482Z,6.07
2023-03-16T13:07:53.801Z,5.53
2023-03-16T13:15:44.328Z,4.78
2023-03-16T13:18:16.865Z,10.13
2023-03-16T13:21:44.581Z,7.65
2023-03-16T13:24:18.114Z,4.82
2023-03-16T13:26:59.597Z,4.18
2023-03-16T13:29:30.444Z,3.45
2023-03-16T13:32:20.434Z,5.97
2023-03-16T13:34:59.574Z,8.32
2023-03-16T13:37:30.062Z,4.03
2023-03-16T13:40:40.184Z,5.72
2023-03-16T13:43:17.281Z,4.95
2023-03-16T13:45:45.294Z,5.15
2023-03-16T13:48:20.678Z,3.35
2023-03-16T13:50:54.952Z,6.10
2023-03-16T13:53:29.018Z,8.73
2023-03-16T13:56:00.270Z,6.97
2023-03-16T13:58:35.515Z,8.57
2023-03-16T14:01:19.051Z,6.78
2023-03-16T14:03:50.420Z,6.78
2023-03-16T14:06:29.331Z,6.17
2023-03-16T14:09:04.656Z,5.07
2023-03-16T14:11:32.190Z,6.57
2023-03-16T14:14:01.119Z,8.27
2023-03-16T14:16:35.525Z,10.23
2023-03-16T14:19:25.908Z,7.00
2023-03-16T14:21:53.255Z,6.50
2023-03-16T14:24:33.751Z,4.38
2023-03-16T14:27:50.032Z,8.60
2023-03-16T14:31:15.634Z,7.18
2023-03-16T14:33:37.899Z,6.22
2023-03-16T14:36:15.974Z,5.35
2023-03-16T14:38:52.348Z,9.77
2023-03-16T14:45:48.254Z,4.28
2023-03-16T14:48:21.854Z,5.18
2023-03-16T14:55:19.512Z,5.53
2023-03-16T14:57:47.238Z,5.13
2023-03-16T15:05:29.428Z,5.63
2023-03-16T15:14:49.799Z,7.72
2023-03-16T15:17:20.439Z,5.17
2023-03-16T15:19:48.278Z,5.90
2023-03-16T15:22:27.537Z,7.63
2023-03-16T15:24:59.080Z,6.07
2023-03-16T15:27:36.451Z,8.85
2023-03-16T15:30:10.856Z,7.25
2023-03-16T15:32:38.396Z,7.82
2023-03-16T15:35:06.528Z,7.60
2023-03-16T15:37:36.961Z,9.45
2023-03-16T15:40:29.863Z,11.65
2023-03-16T15:45:24.728Z,10.93
2023-03-16T15:47:54.054Z,10.48
2023-03-16T15:50:24.779Z,6.05
2023-03-16T15:53:47.742Z,9.82
2023-03-16T15:56:17.922Z,11.73
2023-03-16T15:59:09.225Z,10.80
2023-03-16T16:01:47.913Z,14.55
2023-03-16T16:04:27.237Z,9.02
2023-03-16T16:06:55.437Z,9.10
2023-03-16T16:13:43.071Z,10.48
2023-03-16T16:16:15.747Z,12.90
2023-03-16T16:23:52.118Z,9.27
2023-03-16T16:26:34.319Z,8.23
2023-03-16T16:33:35.922Z,16.00
2023-03-16T16:36:14.382Z,16.13
2023-03-16T16:38:42.364Z,14.50
2023-03-16T16:41:20.659Z,14.70
2023-03-16T16:43:48.427Z,10.60
2023-03-16T16:46:20.468Z,8.55
2023-03-16T16:51:02.049Z,12.10
2023-03-16T16:53:34.292Z,15.73
2023-03-16T16:59:24.528Z,9.60
2023-03-16T17:02:06.653Z,17.70
2023-03-16T17:04:34.070Z,11.65
2023-03-16T17:07:03.064Z,14.20
2023-03-16T17:10:26.685Z,9.55
2023-03-16T17:12:59.519Z,12.07
2023-03-16T17:15:31.101Z,14.40
2023-03-16T17:18:19.684Z,13.45
2023-03-16T17:20:48.707Z,13.90
2023-03-16T17:23:34.625Z,12.60
2023-03-16T17:26:12.721Z,12.10
2023-03-16T17:28:48.617Z,16.40
2023-03-16T17:31:24.975Z,10.77
2023-03-16T17:33:56.988Z,15.38
2023-03-16T17:36:25.314Z,10.02
2023-03-16T17:38:53.800Z,16.52
2023-03-16T17:41:32.445Z,12.82
2023-03-16T17:44:05.487Z,17.50
2023-03-16T17:49:01.951Z,14.85
2023-03-16T17:57:24.984Z,17.25
2023-03-16T18:01:22.769Z,11.55
2023-03-16T18:03:50.804Z,12.73
2023-03-16T18:06:25.578Z,10.60
2023-03-16T18:08:53.753Z,15.20
2023-03-16T18:11:41.758Z,13.32
2023-03-16T18:14:40.226Z,13.43
2023-03-16T18:18:39.769Z,16.45
2023-03-16T18:21:08.960Z,11.52
2023-03-16T18:23:36.923Z,17.55
2023-03-16T18:26:06.960Z,13.00
2023-03-16T18:28:35.088Z,11.93
2023-03-16T18:31:14.906Z,15.15
2023-03-16T18:33:49.449Z,19.05
2023-03-16T18:36:30.154Z,12.25
2023-03-16T18:39:05.352Z,10.75
2023-03-16T18:41:34.989Z,15.40
2023-03-16T18:44:23.321Z,17.98
2023-03-16T18:46:53.793Z,18.50
2023-03-16T18:49:37.387Z,13.15
2023-03-16T18:52:16.766Z,14.63
2023-03-16T18:54:50.230Z,11.05
2023-03-16T18:57:28.814Z,11.00
2023-03-16T18:59:58.652Z,12.70
2023-03-16T19:02:39.050Z,13.23
2023-03-16T19:05:37.997Z,14.82
2023-03-16T19:08:06.254Z,15.07
2023-03-16T19:10:49.481Z,12.02
2023-03-16T19:13:21.482Z,9.90
2023-03-16T19:15:52.211Z,11.98
2023-03-16T19:18:20.045Z,14.90
2023-03-16T19:20:51.437Z,15.50
2023-03-16T19:23:32.825Z,14.70
2023-03-16T19:26:03.174Z,11.48
2023-03-16T19:28:36.728Z,13.82
2023-03-16T19:31:25.697Z,13.55
2023-03-16T19:33:57.026Z,16.67
2023-03-16T19:36:31.401Z,14.07
2023-03-16T19:39:02.249Z,16.05
2023-03-16T19:41:34.314Z,14.75
2023-03-16T19:44:20.671Z,17.88
2023-03-16T19:46:49.817Z,10.88
2023-03-16T19:49:18.124Z,12.70
2023-03-16T19:51:53.853Z,17.15
2023-03-16T19:54:32.470Z,16.10
2023-03-16T19:57:12.909Z,13.77
2023-03-16T19:59:41.664Z,12.63
2023-03-16T20:02:35.780Z,20.58
2023-03-16T20:05:04.332Z,13.77
2023-03-16T20:07:37.760Z,12.75
2023-03-16T20:10:06.713Z,15.50
2023-03-16T20:12:42.198Z,14.65
2023-03-16T20:15:16.991Z,14.95
2023-03-16T20:17:44.974Z,15.07
2023-03-16T20:20:32.498Z,13.70
2023-03-16T20:23:00.414Z,13.27
2023-03-16T20:25:32.980Z,15.73
2023-03-16T20:28:03.846Z,11.80
2023-03-16T20:30:31.894Z,13.13
2023-03-16T20:33:34.422Z,13.55
2023-03-16T20:36:02.039Z,16.58
2023-03-16T20:38:29.698Z,10.35
2023-03-16T20:41:05.077Z,14.55
2023-03-16T20:43:33.160Z,13.00
2023-03-16T20:46:03.922Z,13.98
2023-03-16T20:48:32.496Z,21.20
2023-03-16T20:51:00.862Z,11.75
2023-03-16T20:53:28.878Z,13.10
2023-03-16T20:55:57.080Z,13.52
2023-03-16T20:58:28.271Z,14.95
2023-03-16T21:01:02.075Z,12.82
2023-03-16T21:03:33.735Z,20.73
2023-03-16T21:06:01.321Z,14.23
2023-03-16T21:08:31.782Z,15.38
2023-03-16T21:10:59.893Z,7.88
2023-03-16T21:13:33.039Z,12.38
2023-03-16T21:16:03.415Z,11.48
2023-03-16T21:18:31.342Z,8.40
2023-03-16T21:21:04.287Z,11.60
2023-03-16T21:23:31.524Z,12.68
2023-03-16T21:26:04.351Z,13.95
2023-03-16T21:28:34.629Z,13.30
2023-03-16T21:31:03.165Z,16.10
2023-03-16T21:33:40.117Z,12.52
2023-03-16T21:36:18.294Z,11.73
2023-03-16T21:38:49.035Z,11.70
2023-03-16T21:41:17.550Z,12.07
2023-03-16T21:43:47.010Z,9.43
2023-03-16T21:46:18.914Z,14.07
2023-03-16T21:48:50.500Z,16.50
2023-03-16T21:51:38.338Z,12.80
2023-03-16T21:54:07.973Z,14.23
2023-03-16T21:56:36.232Z,10.63
2023-03-16T21:59:10.102Z,12.00
2023-03-16T22:01:54.259Z,9.38
2023-03-16T22:04:27.924Z,12.13
2023-03-16T22:06:55.269Z,17.77
2023-03-16T22:09:30.543Z,13.57
2023-03-16T22:11:57.874Z,15.45
2023-03-16T22:14:59.229Z,13.18
2023-03-16T22:21:42.967Z,10.00
2023-03-16T22:24:27.341Z,10.43
2023-03-16T22:26:59.701Z,12.35
2023-03-16T22:29:30.748Z,18.42
2023-03-16T22:32:12.964Z,12.55
2023-03-16T22:34:55.835Z,13.60
2023-03-16T22:37:30.744Z,16.67
2023-03-16T22:40:02.005Z,11.80
2023-03-16T22:42:38.097Z,14.20
2023-03-16T22:45:28.647Z,13.10
2023-03-16T22:47:59.119Z,12.73
2023-03-16T22:50:30.773Z,13.38
2023-03-16T22:53:03.116Z,12.00
2023-03-16T22:55:38.207Z,13.23
2023-03-16T22:58:27.866Z,13.05
2023-03-16T23:00:55.575Z,11.75
2023-03-16T23:03:26.047Z,13.68
2023-03-16T23:05:53.275Z,11.90
2023-03-16T23:08:23.515Z,15.23
2023-03-16T23:10:52.738Z,17.67
2023-03-16T23:13:26.191Z,15.68
2023-03-16T23:15:53.816Z,15.35
2023-03-16T23:18:26.677Z,14.63
2023-03-16T23:20:56.419Z,10.93
2023-03-16T23:23:26.512Z,11.35
2023-03-16T23:25:53.621Z,11.93
2023-03-16T23:28:24.865Z,13.00
2023-03-16T23:30:52.095Z,13.25
2023-03-16T23:33:19.174Z,15.43
2023-03-16T23:35:46.965Z,12.55
2023-03-16T23:38:15.537Z,15.93
2023-03-16T23:40:42.745Z,16.20
2023-03-16T23:43:09.932Z,11.32
2023-03-16T23:45:47.379Z,14.23
2023-03-16T23:48:19.286Z,14.45
2023-03-16T23:50:52.190Z,15.23
2023-03-16T23:53:20.677Z,12.35
2023-03-16T23:55:48.564Z,15.50
2023-03-16T23:58:16.588Z,11.27
